createdAt,value
2018-05-29T00:00:04.412Z,10.87
2018-05-29T00:02:31.977Z,9.83
2018-05-29T00:04:59.541Z,10.60
2018-05-29T00:07:27.080Z,10.40
2018-05-29T00:09:54.647Z,11.40
2018-05-29T00:12:22.202Z,10.40
2018-05-29T00:14:49.781Z,10.60
2018-05-29T00:17:17.330Z,10.33
2018-05-29T00:19:44.901Z,11.30
2018-05-29T00:22:12.450Z,11.10
2018-05-29T00:24:46.485Z,11.50
2018-05-29T00:27:14.073Z,10.80
2018-05-29T00:29:42.389Z,10.97
2018-05-29T00:32:09.953Z,10.67
2018-05-29T00:34:41.034Z,10.40
2018-05-29T00:37:14.710Z,11.90
2018-05-29T00:39:42.252Z,11.37
2018-05-29T00:42:09.825Z,12.13
2018-05-29T00:44:38.152Z,11.70
2018-05-29T00:47:06.492Z,11.10
2018-05-29T00:49:34.037Z,12.00
2018-05-29T00:52:01.608Z,12.03
2018-05-29T00:54:29.162Z,11.00
2018-05-29T00:57:03.648Z,11.33
2018-05-29T00:59:31.213Z,11.13
2018-05-29T01:01:58.796Z,12.30
2018-05-29T01:04:26.353Z,11.20
2018-05-29T01:06:53.924Z,11.60
2018-05-29T01:09:21.465Z,11.07
2018-05-29T01:11:49.026Z,11.80
2018-05-29T01:14:16.571Z,12.13
2018-05-29T01:16:44.138Z,11.73
2018-05-29T01:19:11.680Z,12.43
2018-05-29T01:21:39.254Z,11.63
2018-05-29T01:24:06.808Z,12.03
2018-05-29T01:26:34.377Z,12.03
2018-05-29T01:29:01.922Z,12.07
2018-05-29T01:31:29.492Z,12.33
2018-05-29T01:33:57.046Z,12.00
2018-05-29T01:36:24.617Z,11.67
2018-05-29T01:38:52.159Z,9.90
2018-05-29T01:41:19.728Z,11.13
2018-05-29T01:43:47.276Z,11.77
2018-05-29T01:46:14.845Z,11.00
2018-05-29T01:48:42.398Z,12.40
2018-05-29T01:51:09.969Z,11.80
2018-05-29T01:53:37.524Z,11.60
2018-05-29T01:56:05.092Z,12.33
2018-05-29T01:58:32.633Z,10.80
2018-05-29T02:01:00.205Z,11.70
2018-05-29T02:03:27.758Z,11.70
2018-05-29T02:05:55.337Z,12.70
2018-05-29T02:08:22.882Z,11.70
2018-05-29T02:10:50.459Z,11.47
2018-05-29T02:13:18.777Z,12.07
2018-05-29T02:15:47.116Z,12.43
2018-05-29T02:18:14.667Z,13.00
2018-05-29T02:20:42.230Z,12.60
2018-05-29T02:23:09.782Z,12.27
2018-05-29T02:25:37.351Z,12.47
2018-05-29T02:28:04.901Z,11.57
2018-05-29T02:30:32.467Z,12.00
2018-05-29T02:33:00.014Z,11.53
2018-05-29T02:35:27.608Z,11.70
2018-05-29T02:37:55.157Z,12.40
2018-05-29T02:40:22.726Z,11.20
2018-05-29T02:42:57.689Z,11.10
2018-05-29T02:45:26.028Z,12.60
2018-05-29T02:47:53.578Z,12.87
2018-05-29T02:50:21.155Z,12.40
2018-05-29T02:52:48.702Z,13.00
2018-05-29T02:55:16.270Z,13.20
2018-05-29T02:57:43.812Z,13.37
2018-05-29T03:00:11.373Z,12.73
2018-05-29T03:02:39.693Z,13.40
2018-05-29T03:05:08.034Z,14.40
2018-05-29T03:07:35.576Z,12.87
2018-05-29T03:10:03.229Z,13.10
2018-05-29T03:12:30.783Z,13.07
2018-05-29T03:14:58.366Z,12.70
2018-05-29T03:17:25.917Z,13.60
2018-05-29T03:19:53.496Z,12.13
2018-05-29T03:22:21.040Z,12.40
2018-05-29T03:24:48.609Z,13.50
2018-05-29T03:27:16.154Z,12.33
2018-05-29T03:29:43.725Z,13.13
2018-05-29T03:32:11.284Z,12.70
2018-05-29T03:34:38.849Z,13.43
2018-05-29T03:37:06.404Z,11.73
2018-05-29T03:39:33.974Z,12.50
2018-05-29T03:42:01.526Z,12.50
2018-05-29T03:44:29.097Z,12.20
2018-05-29T03:46:56.645Z,12.73
2018-05-29T03:49:24.217Z,12.00
2018-05-29T03:51:51.762Z,12.90
2018-05-29T03:54:19.338Z,12.60
2018-05-29T03:56:46.892Z,12.57
2018-05-29T03:59:14.465Z,13.27
2018-05-29T04:01:42.058Z,13.47
2018-05-29T04:04:09.638Z,13.20
2018-05-29T04:06:37.188Z,13.20
2018-05-29T04:09:05.511Z,15.07
2018-05-29T04:11:33.068Z,15.03
2018-05-29T04:14:00.636Z,15.07
2018-05-29T04:16:28.196Z,14.10
2018-05-29T04:18:55.781Z,15.40
2018-05-29T04:21:24.099Z,14.40
2018-05-29T04:23:51.673Z,14.90
2018-05-29T04:26:19.216Z,14.47
2018-05-29T04:28:46.797Z,14.27
2018-05-29T04:31:14.342Z,15.60
2018-05-29T04:33:41.918Z,15.20
2018-05-29T04:36:09.476Z,15.10
2018-05-29T04:38:37.056Z,15.20
2018-05-29T04:41:05.393Z,14.90
2018-05-29T04:43:32.962Z,14.43
2018-05-29T04:46:03.544Z,15.80
2018-05-29T04:48:31.885Z,16.03
2018-05-29T04:50:59.434Z,15.50
2018-05-29T04:53:27.006Z,16.50
2018-05-29T04:55:54.560Z,15.10
2018-05-29T04:58:22.158Z,15.20
2018-05-29T05:00:50.469Z,14.50
2018-05-29T05:03:18.057Z,15.60
2018-05-29T05:05:45.620Z,15.30
2018-05-29T05:08:13.196Z,15.30
2018-05-29T05:10:41.516Z,16.07
2018-05-29T05:13:09.097Z,14.43
2018-05-29T05:15:36.661Z,15.93
2018-05-29T05:18:04.235Z,15.00
2018-05-29T05:20:31.790Z,15.60
2018-05-29T05:22:59.374Z,15.73
2018-05-29T05:25:27.688Z,15.00
2018-05-29T05:27:55.277Z,15.17
2018-05-29T05:30:23.744Z,14.57
2018-05-29T05:32:51.326Z,15.17
2018-05-29T05:35:18.886Z,13.67
2018-05-29T05:37:46.473Z,12.77
2018-05-29T05:40:14.820Z,13.07
2018-05-29T05:42:42.373Z,12.60
2018-05-29T05:45:09.954Z,14.10
2018-05-29T05:47:37.496Z,16.23
2018-05-29T05:50:05.072Z,15.50
2018-05-29T05:52:32.635Z,15.30
2018-05-29T05:55:00.221Z,13.83
2018-05-29T05:57:28.535Z,13.70
2018-05-29T05:59:56.115Z,12.60
2018-05-29T06:02:23.665Z,12.07
2018-05-29T06:04:51.246Z,11.90
2018-05-29T06:07:18.789Z,12.50
2018-05-29T06:09:46.367Z,13.60
2018-05-29T06:12:13.925Z,13.57
2018-05-29T06:14:41.497Z,13.30
2018-05-29T06:17:13.316Z,13.43
2018-05-29T06:19:46.954Z,12.80
2018-05-29T06:22:14.510Z,12.90
2018-05-29T06:24:42.094Z,11.87
2018-05-29T06:27:10.415Z,12.33
2018-05-29T06:29:38.189Z,13.37
2018-05-29T06:32:05.847Z,13.20
2018-05-29T06:34:38.282Z,12.83
2018-05-29T06:37:05.829Z,13.47
2018-05-29T06:39:35.286Z,13.83
2018-05-29T06:42:02.831Z,12.93
2018-05-29T06:44:31.369Z,14.57
2018-05-29T06:46:59.683Z,14.33
2018-05-29T06:49:27.237Z,14.77
2018-05-29T06:51:55.015Z,13.67
2018-05-29T06:54:22.561Z,14.07
2018-05-29T06:56:53.280Z,13.63
2018-05-29T06:59:20.845Z,14.17
2018-05-29T07:01:48.398Z,14.97
2018-05-29T07:04:15.949Z,14.80
2018-05-29T07:06:43.537Z,14.63
2018-05-29T07:09:11.085Z,15.17
2018-05-29T07:11:38.639Z,13.70
2018-05-29T07:14:06.216Z,13.70
2018-05-29T07:16:33.766Z,14.23
2018-05-29T07:19:01.318Z,14.73
2018-05-29T07:21:28.901Z,14.70
2018-05-29T07:23:56.451Z,12.70
2018-05-29T07:26:24.001Z,13.30
2018-05-29T07:28:51.569Z,13.20
2018-05-29T07:31:19.125Z,12.70
2018-05-29T07:33:46.705Z,12.90
2018-05-29T07:36:14.254Z,13.77
2018-05-29T07:38:41.802Z,12.83
2018-05-29T07:41:09.381Z,13.67
2018-05-29T07:43:36.952Z,13.00
2018-05-29T07:46:05.413Z,12.80
2018-05-29T07:48:32.961Z,12.97
2018-05-29T07:51:04.360Z,13.10
2018-05-29T07:53:31.909Z,12.00
2018-05-29T07:55:59.490Z,12.57
2018-05-29T07:58:27.801Z,12.13
2018-05-29T08:00:55.341Z,11.07
2018-05-29T08:03:23.692Z,11.87
2018-05-29T08:05:51.236Z,10.80
2018-05-29T08:08:18.782Z,9.70
2018-05-29T08:10:46.362Z,10.17
2018-05-29T08:13:13.904Z,9.90
2018-05-29T08:15:41.445Z,9.60
2018-05-29T08:18:09.029Z,10.00
2018-05-29T08:20:36.573Z,9.77
2018-05-29T08:23:04.112Z,9.60
2018-05-29T08:25:31.675Z,9.90
2018-05-29T08:27:59.221Z,8.03
2018-05-29T08:30:27.560Z,7.70
2018-05-29T08:32:55.097Z,7.60
2018-05-29T08:35:22.665Z,7.20
2018-05-29T08:37:50.215Z,7.93
2018-05-29T08:40:17.753Z,7.50
2018-05-29T08:42:45.321Z,7.90
2018-05-29T08:45:12.854Z,7.67
2018-05-29T08:47:40.404Z,7.30
2018-05-29T08:50:07.968Z,7.60
2018-05-29T08:52:35.500Z,7.07
2018-05-29T08:55:03.069Z,6.90
2018-05-29T08:57:31.385Z,7.00
2018-05-29T08:59:58.953Z,7.20
2018-05-29T09:02:26.494Z,6.53
2018-05-29T09:04:54.037Z,7.50
2018-05-29T09:07:24.921Z,7.00
2018-05-29T09:09:52.475Z,7.40
2018-05-29T09:12:20.025Z,7.90
2018-05-29T09:14:47.601Z,6.90
2018-05-29T09:17:18.106Z,7.40
2018-05-29T09:19:45.656Z,7.63
2018-05-29T09:22:13.225Z,6.77
2018-05-29T09:24:40.765Z,7.60
2018-05-29T09:27:12.693Z,7.70
2018-05-29T09:29:40.280Z,7.77
2018-05-29T09:32:07.830Z,7.50
2018-05-29T09:34:42.006Z,7.67
2018-05-29T09:37:09.543Z,7.43
2018-05-29T09:39:37.126Z,8.23
2018-05-29T09:42:06.604Z,9.30
2018-05-29T09:44:34.156Z,8.57
2018-05-29T09:47:01.720Z,9.00
2018-05-29T09:49:29.258Z,8.00
2018-05-29T09:51:56.795Z,8.67
2018-05-29T09:54:25.163Z,9.53
2018-05-29T09:56:52.688Z,8.90
2018-05-29T09:59:33.761Z,8.90
2018-05-29T10:02:08.787Z,8.40
2018-05-29T10:04:36.371Z,8.80
2018-05-29T10:07:04.053Z,8.33
2018-05-29T10:09:31.597Z,8.13
2018-05-29T10:11:59.166Z,9.30
2018-05-29T10:14:26.706Z,8.33
2018-05-29T10:17:00.183Z,9.00
2018-05-29T10:19:27.741Z,9.00
2018-05-29T10:21:56.105Z,9.53
2018-05-29T10:24:23.675Z,8.50
2018-05-29T10:26:51.229Z,8.87
2018-05-29T10:29:18.795Z,9.87
2018-05-29T10:31:46.341Z,8.93
2018-05-29T10:34:28.008Z,9.30
2018-05-29T10:36:56.320Z,8.50
2018-05-29T10:39:23.873Z,9.50
2018-05-29T10:41:51.446Z,9.50
2018-05-29T10:44:18.989Z,8.77
2018-05-29T10:46:46.533Z,9.40
2018-05-29T10:49:14.870Z,10.20
2018-05-29T10:51:42.425Z,8.40
2018-05-29T10:54:11.048Z,7.83
2018-05-29T10:56:39.384Z,9.33
2018-05-29T10:59:06.977Z,8.90
2018-05-29T11:01:34.500Z,9.70
2018-05-29T11:04:02.075Z,9.30
2018-05-29T11:06:29.617Z,8.30
2018-05-29T11:08:57.156Z,8.70
2018-05-29T11:11:24.730Z,8.80
2018-05-29T11:13:52.267Z,8.90
2018-05-29T11:16:19.809Z,9.07
2018-05-29T11:18:47.376Z,9.00
2018-05-29T11:21:14.924Z,9.10
2018-05-29T11:23:43.258Z,8.80
2018-05-29T11:26:10.796Z,9.90
2018-05-29T11:28:38.338Z,8.83
2018-05-29T11:31:05.906Z,8.67
2018-05-29T11:33:33.480Z,8.30
2018-05-29T11:36:02.037Z,9.17
2018-05-29T11:38:29.596Z,8.23
2018-05-29T11:40:57.159Z,8.23
2018-05-29T11:43:24.728Z,8.30
2018-05-29T11:45:52.298Z,8.13
2018-05-29T11:48:19.849Z,8.97
2018-05-29T11:50:47.394Z,8.80
2018-05-29T11:53:14.973Z,9.27
2018-05-29T11:55:42.512Z,8.60
2018-05-29T11:58:10.249Z,8.70
2018-05-29T12:00:38.602Z,8.83
2018-05-29T12:03:06.123Z,9.47
2018-05-29T12:05:33.694Z,10.20
2018-05-29T12:08:01.237Z,8.60
2018-05-29T12:10:28.789Z,8.70
2018-05-29T12:12:57.126Z,9.20
2018-05-29T12:15:24.857Z,7.70
2018-05-29T12:17:57.017Z,8.60
2018-05-29T12:20:31.384Z,8.27
2018-05-29T12:22:59.708Z,7.33
2018-05-29T12:25:27.257Z,7.20
2018-05-29T12:27:54.892Z,6.60
2018-05-29T12:30:24.404Z,7.07
2018-05-29T12:32:52.716Z,8.23
2018-05-29T12:35:20.275Z,8.30
2018-05-29T12:37:47.855Z,8.67
2018-05-29T12:40:15.402Z,8.20
2018-05-29T12:42:42.956Z,8.40
2018-05-29T12:45:10.532Z,8.13
2018-05-29T12:47:38.077Z,8.10
2018-05-29T12:50:05.670Z,7.37
2018-05-29T12:52:34.169Z,8.03
2018-05-29T12:55:02.501Z,8.37
2018-05-29T12:57:30.072Z,8.07
2018-05-29T12:59:57.641Z,7.70
2018-05-29T13:02:25.949Z,7.53
2018-05-29T13:04:54.279Z,7.30
2018-05-29T13:07:21.821Z,6.83
2018-05-29T13:09:49.412Z,7.07
2018-05-29T13:12:16.969Z,6.20
2018-05-29T13:14:44.541Z,6.83
2018-05-29T13:17:12.090Z,6.00
2018-05-29T13:19:39.658Z,5.70
2018-05-29T13:22:07.207Z,5.77
2018-05-29T13:24:34.793Z,6.23
2018-05-29T13:27:03.193Z,6.40
2018-05-29T13:29:31.507Z,5.90
2018-05-29T13:31:59.095Z,5.13
2018-05-29T13:34:26.640Z,5.37
2018-05-29T13:36:54.202Z,5.83
2018-05-29T13:39:21.780Z,5.80
2018-05-29T13:41:50.180Z,4.73
2018-05-29T13:44:17.793Z,5.70
2018-05-29T13:46:45.356Z,6.00
2018-05-29T13:49:12.932Z,5.60
2018-05-29T13:51:40.613Z,6.57
2018-05-29T13:54:09.200Z,5.13
2018-05-29T13:56:38.828Z,5.93
2018-05-29T13:59:06.364Z,5.80
2018-05-29T14:01:34.734Z,5.60
2018-05-29T14:04:04.325Z,5.87
2018-05-29T14:06:32.120Z,5.40
2018-05-29T14:08:59.704Z,5.83
2018-05-29T14:11:28.550Z,5.37
2018-05-29T14:13:57.019Z,4.90
2018-05-29T14:16:25.370Z,5.33
2018-05-29T14:18:52.935Z,4.83
2018-05-29T14:21:21.312Z,4.90
2018-05-29T14:23:48.882Z,4.87
2018-05-29T14:26:16.468Z,5.57
2018-05-29T14:28:44.818Z,5.93
2018-05-29T14:31:12.379Z,6.47
2018-05-29T14:33:39.953Z,5.90
2018-05-29T14:36:07.533Z,5.57
2018-05-29T14:38:35.844Z,6.17
2018-05-29T14:41:03.430Z,5.53
2018-05-29T14:43:30.984Z,5.90
2018-05-29T14:45:58.541Z,6.70
2018-05-29T14:48:26.109Z,5.90
2018-05-29T14:50:53.679Z,5.40
2018-05-29T14:53:21.220Z,5.40
2018-05-29T14:55:48.777Z,6.30
2018-05-29T14:58:16.446Z,6.70
2018-05-29T15:00:44.013Z,6.00
2018-05-29T15:03:11.643Z,5.63
2018-05-29T15:05:39.225Z,5.90
2018-05-29T15:08:06.784Z,5.13
2018-05-29T15:10:34.348Z,5.30
2018-05-29T15:13:01.914Z,5.03
2018-05-29T15:15:29.452Z,5.40
2018-05-29T15:17:57.478Z,4.37
2018-05-29T15:20:25.780Z,4.43
2018-05-29T15:22:53.324Z,5.10
2018-05-29T15:25:20.894Z,5.43
2018-05-29T15:27:52.033Z,5.80
2018-05-29T15:30:32.165Z,5.10
2018-05-29T15:33:00.481Z,5.20
2018-05-29T15:35:28.022Z,4.90
2018-05-29T15:37:55.595Z,6.00
2018-05-29T15:40:23.137Z,6.30
2018-05-29T15:42:50.682Z,6.30
2018-05-29T15:45:19.060Z,6.30
2018-05-29T15:47:47.376Z,5.50
2018-05-29T15:50:14.927Z,5.40
2018-05-29T15:52:42.493Z,5.70
2018-05-29T15:55:10.065Z,5.77
2018-05-29T15:57:37.613Z,5.00
2018-05-29T16:00:05.186Z,5.30
2018-05-29T16:02:32.740Z,4.70
2018-05-29T16:05:00.278Z,4.63
2018-05-29T16:07:27.851Z,4.70
2018-05-29T16:09:55.388Z,5.23
2018-05-29T16:12:23.002Z,4.83
2018-05-29T16:14:50.554Z,5.20
2018-05-29T16:17:18.109Z,4.40
2018-05-29T16:19:45.681Z,5.23
2018-05-29T16:22:13.233Z,5.13
2018-05-29T16:24:40.774Z,5.23
2018-05-29T16:27:08.348Z,5.70
2018-05-29T16:29:35.903Z,5.57
2018-05-29T16:32:03.450Z,5.13
2018-05-29T16:34:31.023Z,5.00
2018-05-29T16:36:58.570Z,4.17
2018-05-29T16:39:26.146Z,4.73
2018-05-29T16:41:53.766Z,4.60
2018-05-29T16:44:21.300Z,5.10
2018-05-29T16:46:49.642Z,5.03
2018-05-29T16:49:17.248Z,5.70
2018-05-29T16:51:44.814Z,4.63
2018-05-29T16:54:12.369Z,5.20
2018-05-29T16:56:39.948Z,4.97
2018-05-29T16:59:07.512Z,5.10
2018-05-29T17:01:35.058Z,4.70
2018-05-29T17:04:02.631Z,5.13
2018-05-29T17:06:30.211Z,5.10
2018-05-29T17:08:57.754Z,4.73
2018-05-29T17:11:25.341Z,4.00
2018-05-29T17:13:52.889Z,4.90
2018-05-29T17:16:20.430Z,5.00
2018-05-29T17:18:48.000Z,4.77
2018-05-29T17:21:15.550Z,5.07
2018-05-29T17:23:43.195Z,5.33
2018-05-29T17:26:10.763Z,4.30
2018-05-29T17:28:38.334Z,5.17
2018-05-29T17:31:05.877Z,5.60
2018-05-29T17:33:33.451Z,5.97
2018-05-29T17:36:00.996Z,6.60
2018-05-29T17:38:28.545Z,6.97
2018-05-29T17:40:56.870Z,5.57
2018-05-29T17:43:24.423Z,5.30
2018-05-29T17:45:51.999Z,5.47
2018-05-29T17:48:19.547Z,5.87
2018-05-29T17:50:47.110Z,5.47
2018-05-29T17:53:14.697Z,5.33
2018-05-29T17:55:43.124Z,5.30
2018-05-29T17:58:10.696Z,5.50
2018-05-29T18:00:38.275Z,5.50
2018-05-29T18:03:05.817Z,5.20
2018-05-29T18:05:33.384Z,5.10
2018-05-29T18:08:01.019Z,6.30
2018-05-29T18:10:29.322Z,5.83
2018-05-29T18:12:56.934Z,5.53
2018-05-29T18:15:24.501Z,5.27
2018-05-29T18:17:52.058Z,5.40
2018-05-29T18:20:19.623Z,5.67
2018-05-29T18:22:47.196Z,5.67
2018-05-29T18:28:18.720Z,5.40
2018-05-29T18:30:47.070Z,5.53
2018-05-29T18:33:14.616Z,6.00
2018-05-29T18:35:42.189Z,4.97
2018-05-29T18:38:09.763Z,6.20
2018-05-29T18:40:37.345Z,5.60
2018-05-29T18:43:05.661Z,5.97
2018-05-29T18:45:35.168Z,5.57
2018-05-29T18:48:02.711Z,6.37
2018-05-29T18:50:32.238Z,7.03
2018-05-29T18:53:00.983Z,6.03
2018-05-29T18:55:29.381Z,5.77
2018-05-29T18:57:56.973Z,5.87
2018-05-29T19:00:24.733Z,5.97
2018-05-29T19:02:57.280Z,6.13
2018-05-29T19:05:31.898Z,5.80
2018-05-29T19:07:59.429Z,6.50
2018-05-29T19:10:27.866Z,5.93
2018-05-29T19:12:58.205Z,5.83
2018-05-29T19:15:25.860Z,6.27
2018-05-29T19:17:53.407Z,6.47
2018-05-29T19:20:20.959Z,6.50
2018-05-29T19:22:48.585Z,6.10
2018-05-29T19:25:16.181Z,5.70
2018-05-29T19:27:43.746Z,5.60
2018-05-29T19:30:11.329Z,6.80
2018-05-29T19:32:38.882Z,6.37
2018-05-29T19:35:06.442Z,5.97
2018-05-29T19:37:34.800Z,6.70
2018-05-29T19:40:09.100Z,5.60
2018-05-29T19:42:36.645Z,6.10
2018-05-29T19:45:08.147Z,6.53
2018-05-29T19:47:35.721Z,6.30
2018-05-29T19:50:03.281Z,6.57
2018-05-29T19:52:30.885Z,6.90
2018-05-29T19:55:11.615Z,7.03
2018-05-29T19:57:39.199Z,6.50
2018-05-29T20:00:26.595Z,7.20
2018-05-29T20:03:05.125Z,8.43
2018-05-29T20:05:33.449Z,8.80
2018-05-29T20:08:04.524Z,8.70
2018-05-29T20:10:35.270Z,8.63
2018-05-29T20:13:02.826Z,8.03
2018-05-29T20:15:38.349Z,8.73
2018-05-29T20:18:06.680Z,8.90
2018-05-29T20:20:35.008Z,8.40
2018-05-29T20:26:03.602Z,9.60
2018-05-29T20:28:31.381Z,8.70
2018-05-29T20:30:58.913Z,8.77
2018-05-29T20:33:32.978Z,11.13
2018-05-29T20:36:01.305Z,11.70
2018-05-29T20:38:29.197Z,11.07
2018-05-29T20:40:56.793Z,11.17
2018-05-29T20:43:25.105Z,11.10
2018-05-29T20:45:52.838Z,10.33
2018-05-29T20:48:21.222Z,10.20
2018-05-29T20:50:48.770Z,10.00
2018-05-29T20:53:17.204Z,9.30
2018-05-29T20:55:44.742Z,9.30
2018-05-29T20:58:12.329Z,10.40
2018-05-29T21:00:39.903Z,10.23
2018-05-29T21:03:07.445Z,11.27
2018-05-29T21:05:34.986Z,9.50
2018-05-29T21:08:02.545Z,9.90
2018-05-29T21:10:30.104Z,9.60
2018-05-29T21:12:57.687Z,9.30
2018-05-29T21:15:25.287Z,9.53
2018-05-29T21:18:03.520Z,8.97
2018-05-29T21:20:31.062Z,9.97
2018-05-29T21:22:59.373Z,9.10
2018-05-29T21:25:26.934Z,8.70
2018-05-29T21:27:54.489Z,8.90
2018-05-29T21:30:22.047Z,10.00
2018-05-29T21:32:49.628Z,11.13
2018-05-29T21:35:30.033Z,10.53
2018-05-29T21:37:58.368Z,10.40
2018-05-29T21:40:25.929Z,10.43
2018-05-29T21:45:46.483Z,11.00
2018-05-29T21:48:14.842Z,10.60
2018-05-29T21:50:42.389Z,10.33
2018-05-29T21:53:09.937Z,10.03
2018-05-29T21:55:37.509Z,10.10
2018-05-29T21:58:05.847Z,11.03
2018-05-29T22:00:33.435Z,11.57
2018-05-29T22:03:00.994Z,10.50
2018-05-29T22:05:35.289Z,10.80
2018-05-29T22:08:02.858Z,11.67
2018-05-29T22:10:30.418Z,11.60
2018-05-29T22:12:57.989Z,11.67
2018-05-29T22:15:25.537Z,10.57
2018-05-29T22:17:53.107Z,11.77
2018-05-29T22:20:27.393Z,11.50
2018-05-29T22:22:54.932Z,10.80
2018-05-29T22:25:23.253Z,11.53
2018-05-29T22:27:51.617Z,12.13
2018-05-29T22:30:31.442Z,11.90
2018-05-29T22:32:59.034Z,11.23
2018-05-29T22:35:26.583Z,12.10
2018-05-29T22:43:53.921Z,12.60
2018-05-29T22:46:21.480Z,13.30
2018-05-29T22:48:49.037Z,13.77
2018-05-29T22:51:16.611Z,12.80
2018-05-29T22:53:44.927Z,12.03
2018-05-29T22:56:12.474Z,12.70
2018-05-29T22:58:40.059Z,11.20
2018-05-29T23:01:07.601Z,12.23
2018-05-29T23:03:35.148Z,11.90
2018-05-29T23:06:02.737Z,11.07
2018-05-29T23:08:30.297Z,11.60
2018-05-29T23:11:03.624Z,11.50
2018-05-29T23:13:31.956Z,12.23
2018-05-29T23:15:59.511Z,11.40
2018-05-29T23:18:27.117Z,12.50
2018-05-29T23:20:54.649Z,12.13
2018-05-29T23:23:22.210Z,11.33
2018-05-29T23:25:49.796Z,11.80
2018-05-29T23:28:17.345Z,12.43
2018-05-29T23:30:44.903Z,11.50
2018-05-29T23:33:12.512Z,12.80
2018-05-29T23:35:40.058Z,12.37
2018-05-29T23:38:07.622Z,12.87
2018-05-29T23:40:35.976Z,13.53
2018-05-29T23:43:05.528Z,13.83
2018-05-29T23:45:33.077Z,12.77
2018-05-29T23:48:00.659Z,14.10
2018-05-29T23:50:28.220Z,14.47
2018-05-29T23:52:55.786Z,14.40
2018-05-29T23:55:23.368Z,14.53
2018-05-29T23:57:50.915Z,13.40
